NOZ601 ENGM-ENBR
Flight info
| Callsign | NOZ601 |
|---|---|
| Flight time | 0h 44m |
| Altitude | 28000 |
| Route | ATLAP DCT AGEKU DCT PESUR |
| Aircraft | B738/M-SDE2E3FGHIRWXY/LB1 |
Departure
| Time | 2026-05-04 19:31 |
|---|---|
| Airport | Oslo-Gardermoen International Airport (ENGM) |
Arrival
| Time | 2026-05-04 20:15 |
|---|---|
| Airport | Bergen Airport, Flesland (ENBR) |
| Time | Latitude | Longitude | Altitude | Speed | Heading |
|---|---|---|---|---|---|
| 2026-05-04 18:57 | 60.19586 | 11.09276 | 682 ft | 0 kts | 196° |
| 2026-05-04 19:18 | 60.19609 | 11.09290 | 684 ft | 4 kts | 196° |
| 2026-05-04 19:18 | 60.19628 | 11.09301 | 682 ft | 0 kts | 196° |
| 2026-05-04 19:21 | 60.19626 | 11.09297 | 682 ft | 1 kts | 211° |
| 2026-05-04 19:21 | 60.19637 | 11.09271 | 679 ft | 5 kts | 327° |
| 2026-05-04 19:21 | 60.19703 | 11.09211 | 682 ft | 15 kts | 308° |
| 2026-05-04 19:22 | 60.19733 | 11.09045 | 682 ft | 12 kts | 285° |
| 2026-05-04 19:22 | 60.19762 | 11.08837 | 677 ft | 19 kts | 286° |
| 2026-05-04 19:22 | 60.19766 | 11.08806 | 676 ft | 0 kts | 286° |
| 2026-05-04 19:23 | 60.19767 | 11.08802 | 675 ft | 1 kts | 286° |
| 2026-05-04 19:23 | 60.19767 | 11.08798 | 673 ft | 0 kts | 286° |
| 2026-05-04 19:23 | 60.19768 | 11.08796 | 673 ft | 1 kts | 286° |
| 2026-05-04 19:23 | 60.19784 | 11.08735 | 675 ft | 7 kts | 319° |
| 2026-05-04 19:24 | 60.19859 | 11.08722 | 678 ft | 16 kts | 14° |
| 2026-05-04 19:24 | 60.20004 | 11.08799 | 679 ft | 27 kts | 13° |
| 2026-05-04 19:24 | 60.20188 | 11.08909 | 680 ft | 23 kts | 17° |
| 2026-05-04 19:24 | 60.20350 | 11.09004 | 681 ft | 24 kts | 16° |
| 2026-05-04 19:25 | 60.20522 | 11.09102 | 681 ft | 27 kts | 14° |
| 2026-05-04 19:25 | 60.20715 | 11.09201 | 682 ft | 30 kts | 20° |
| 2026-05-04 19:25 | 60.20917 | 11.09330 | 684 ft | 27 kts | 15° |
| 2026-05-04 19:25 | 60.21082 | 11.09426 | 685 ft | 19 kts | 16° |
| 2026-05-04 19:26 | 60.21211 | 11.09498 | 683 ft | 21 kts | 15° |
| 2026-05-04 19:26 | 60.21365 | 11.09588 | 686 ft | 25 kts | 19° |
| 2026-05-04 19:26 | 60.21505 | 11.09620 | 681 ft | 18 kts | 331° |
| 2026-05-04 19:26 | 60.21559 | 11.09425 | 683 ft | 0 kts | 284° |
| 2026-05-04 19:27 | 60.21560 | 11.09418 | 683 ft | 0 kts | 284° |
| 2026-05-04 19:28 | 60.21562 | 11.09403 | 683 ft | 5 kts | 285° |
| 2026-05-04 19:29 | 60.21579 | 11.09279 | 683 ft | 13 kts | 286° |
| 2026-05-04 19:29 | 60.21541 | 11.09128 | 681 ft | 15 kts | 196° |
| 2026-05-04 19:29 | 60.21511 | 11.09112 | 683 ft | 0 kts | 195° |
| 2026-05-04 19:30 | 60.21281 | 11.08978 | 682 ft | 77 kts | 196° |
| 2026-05-04 19:30 | 60.20498 | 11.08524 | 678 ft | 154 kts | 197° |
| 2026-05-04 19:30 | 60.19302 | 11.07896 | 1039 ft | 188 kts | 196° |
| 2026-05-04 19:31 | 60.18011 | 11.07191 | 1871 ft | 200 kts | 203° |
| 2026-05-04 19:31 | 60.16713 | 11.06128 | 2402 ft | 208 kts | 225° |
| 2026-05-04 19:31 | 60.15943 | 11.03620 | 2633 ft | 224 kts | 249° |
| 2026-05-04 19:31 | 60.15289 | 11.00657 | 3273 ft | 235 kts | 249° |
| 2026-05-04 19:32 | 60.14624 | 10.97636 | 4250 ft | 239 kts | 249° |
| 2026-05-04 19:32 | 60.14067 | 10.94490 | 5163 ft | 241 kts | 262° |
| 2026-05-04 19:32 | 60.13941 | 10.91130 | 6094 ft | 243 kts | 268° |
| 2026-05-04 19:32 | 60.13914 | 10.87721 | 6954 ft | 245 kts | 271° |
| 2026-05-04 19:33 | 60.13949 | 10.84345 | 7870 ft | 246 kts | 271° |
| 2026-05-04 19:33 | 60.13994 | 10.80848 | 8838 ft | 247 kts | 271° |
| 2026-05-04 19:33 | 60.14038 | 10.77388 | 9733 ft | 250 kts | 271° |
| 2026-05-04 19:33 | 60.14074 | 10.73935 | 10473 ft | 255 kts | 271° |
| 2026-05-04 19:34 | 60.14112 | 10.70198 | 10701 ft | 280 kts | 271° |
| 2026-05-04 19:34 | 60.14153 | 10.66133 | 10899 ft | 302 kts | 271° |
| 2026-05-04 19:34 | 60.14194 | 10.61846 | 11476 ft | 309 kts | 271° |
| 2026-05-04 19:34 | 60.14233 | 10.57527 | 12401 ft | 309 kts | 271° |
| 2026-05-04 19:35 | 60.14269 | 10.53224 | 13342 ft | 307 kts | 271° |
| 2026-05-04 19:35 | 60.14302 | 10.48916 | 14125 ft | 308 kts | 270° |
| 2026-05-04 19:35 | 60.14333 | 10.44592 | 14850 ft | 310 kts | 270° |
| 2026-05-04 19:35 | 60.14362 | 10.40259 | 15615 ft | 310 kts | 270° |
| 2026-05-04 19:36 | 60.14389 | 10.35916 | 16371 ft | 312 kts | 270° |
| 2026-05-04 19:36 | 60.14413 | 10.31552 | 17114 ft | 314 kts | 270° |
| 2026-05-04 19:36 | 60.14439 | 10.27212 | 17811 ft | 315 kts | 270° |
| 2026-05-04 19:36 | 60.14462 | 10.22795 | 18440 ft | 317 kts | 270° |
| 2026-05-04 19:37 | 60.14484 | 10.18348 | 19009 ft | 320 kts | 270° |
| 2026-05-04 19:37 | 60.14507 | 10.13864 | 19510 ft | 323 kts | 270° |
| 2026-05-04 19:37 | 60.14525 | 10.09344 | 20066 ft | 325 kts | 270° |
| 2026-05-04 19:37 | 60.14541 | 10.04789 | 20613 ft | 328 kts | 270° |
| 2026-05-04 19:38 | 60.14556 | 10.00184 | 21176 ft | 330 kts | 270° |
| 2026-05-04 19:38 | 60.14571 | 9.95557 | 21766 ft | 331 kts | 270° |
| 2026-05-04 19:38 | 60.14586 | 9.90934 | 22490 ft | 329 kts | 270° |
| 2026-05-04 19:38 | 60.14597 | 9.86362 | 23273 ft | 325 kts | 270° |
| 2026-05-04 19:39 | 60.14606 | 9.81905 | 23877 ft | 323 kts | 270° |
| 2026-05-04 19:39 | 60.14692 | 9.77340 | 24403 ft | 324 kts | 272° |
| 2026-05-04 19:39 | 60.14864 | 9.72891 | 24912 ft | 324 kts | 273° |
| 2026-05-04 19:39 | 60.15057 | 9.68397 | 25465 ft | 322 kts | 273° |
| 2026-05-04 19:40 | 60.15252 | 9.63921 | 26007 ft | 321 kts | 273° |
| 2026-05-04 19:40 | 60.15444 | 9.59440 | 26535 ft | 321 kts | 273° |
| 2026-05-04 19:40 | 60.15631 | 9.54975 | 27021 ft | 321 kts | 273° |
| 2026-05-04 19:40 | 60.15816 | 9.50479 | 27477 ft | 322 kts | 273° |
| 2026-05-04 19:41 | 60.15996 | 9.46029 | 27696 ft | 325 kts | 273° |
| 2026-05-04 19:41 | 60.16174 | 9.41526 | 27724 ft | 322 kts | 273° |
| 2026-05-04 19:41 | 60.16351 | 9.37038 | 27732 ft | 322 kts | 273° |
| 2026-05-04 19:41 | 60.16525 | 9.32550 | 27754 ft | 322 kts | 273° |
| 2026-05-04 19:42 | 60.16698 | 9.28055 | 27749 ft | 323 kts | 273° |
| 2026-05-04 19:42 | 60.16870 | 9.23552 | 27740 ft | 323 kts | 273° |
| 2026-05-04 19:42 | 60.17040 | 9.19036 | 27734 ft | 324 kts | 273° |
| 2026-05-04 19:42 | 60.17209 | 9.14521 | 27739 ft | 324 kts | 273° |
| 2026-05-04 19:43 | 60.17376 | 9.09999 | 27739 ft | 324 kts | 272° |
| 2026-05-04 19:43 | 60.17486 | 9.07004 | 27750 ft | 324 kts | 272° |
| 2026-05-04 19:43 | 60.17704 | 9.01032 | 27755 ft | 324 kts | 272° |
| 2026-05-04 19:43 | 60.17866 | 8.96539 | 27751 ft | 323 kts | 272° |
| 2026-05-04 19:44 | 60.18026 | 8.92046 | 27754 ft | 322 kts | 272° |
| 2026-05-04 19:44 | 60.18185 | 8.87553 | 27738 ft | 322 kts | 272° |
| 2026-05-04 19:44 | 60.18342 | 8.83083 | 27761 ft | 321 kts | 272° |
| 2026-05-04 19:44 | 60.18498 | 8.78614 | 27767 ft | 320 kts | 272° |
| 2026-05-04 19:45 | 60.18651 | 8.74144 | 27766 ft | 320 kts | 272° |
| 2026-05-04 19:45 | 60.18802 | 8.69685 | 27772 ft | 320 kts | 272° |
| 2026-05-04 19:45 | 60.18951 | 8.65228 | 27767 ft | 320 kts | 272° |
| 2026-05-04 19:45 | 60.19050 | 8.62268 | 27774 ft | 321 kts | 272° |
| 2026-05-04 19:46 | 60.19248 | 8.56279 | 27787 ft | 322 kts | 272° |
| 2026-05-04 19:46 | 60.19395 | 8.51791 | 27795 ft | 321 kts | 272° |
| 2026-05-04 19:46 | 60.19539 | 8.47304 | 27787 ft | 322 kts | 272° |
| 2026-05-04 19:46 | 60.19684 | 8.42801 | 27784 ft | 322 kts | 272° |
| 2026-05-04 19:47 | 60.19827 | 8.38302 | 27797 ft | 322 kts | 272° |
| 2026-05-04 19:47 | 60.19967 | 8.33812 | 27800 ft | 323 kts | 272° |
| 2026-05-04 19:47 | 60.20107 | 8.29292 | 27737 ft | 323 kts | 272° |
| 2026-05-04 19:47 | 60.20243 | 8.24860 | 27486 ft | 319 kts | 272° |
| 2026-05-04 19:48 | 60.20377 | 8.20479 | 27211 ft | 309 kts | 272° |
| 2026-05-04 19:48 | 60.20506 | 8.16249 | 26950 ft | 297 kts | 272° |
| 2026-05-04 19:48 | 60.20629 | 8.12163 | 26669 ft | 287 kts | 272° |
| 2026-05-04 19:48 | 60.20750 | 8.08212 | 26424 ft | 281 kts | 272° |
| 2026-05-04 19:49 | 60.20874 | 8.04287 | 26165 ft | 282 kts | 272° |
| 2026-05-04 19:49 | 60.20986 | 8.00329 | 25964 ft | 284 kts | 272° |
| 2026-05-04 19:49 | 60.21094 | 7.96361 | 25709 ft | 284 kts | 272° |
| 2026-05-04 19:49 | 60.21204 | 7.92409 | 25455 ft | 281 kts | 272° |
| 2026-05-04 19:50 | 60.21313 | 7.88503 | 25215 ft | 279 kts | 272° |
| 2026-05-04 19:50 | 60.21421 | 7.84617 | 24956 ft | 277 kts | 272° |
| 2026-05-04 19:50 | 60.21527 | 7.80780 | 24704 ft | 271 kts | 272° |
| 2026-05-04 19:50 | 60.21629 | 7.77051 | 24400 ft | 264 kts | 272° |
| 2026-05-04 19:51 | 60.21661 | 7.75884 | 24307 ft | 263 kts | 272° |
| 2026-05-04 19:51 | 60.21713 | 7.73956 | 24143 ft | 262 kts | 272° |
| 2026-05-04 19:51 | 60.21811 | 7.70313 | 23820 ft | 260 kts | 272° |
| 2026-05-04 19:52 | 60.21907 | 7.66694 | 23498 ft | 258 kts | 272° |
| 2026-05-04 19:52 | 60.22002 | 7.63073 | 23051 ft | 260 kts | 272° |
| 2026-05-04 19:52 | 60.22097 | 7.59421 | 22580 ft | 263 kts | 272° |
| 2026-05-04 19:52 | 60.22192 | 7.55712 | 22064 ft | 267 kts | 272° |
| 2026-05-04 19:53 | 60.22287 | 7.51974 | 21562 ft | 268 kts | 272° |
| 2026-05-04 19:53 | 60.22381 | 7.48214 | 21081 ft | 269 kts | 272° |
| 2026-05-04 19:53 | 60.22475 | 7.44446 | 20596 ft | 270 kts | 272° |
| 2026-05-04 19:53 | 60.22569 | 7.40663 | 20096 ft | 270 kts | 272° |
| 2026-05-04 19:54 | 60.22659 | 7.36926 | 19597 ft | 266 kts | 272° |
| 2026-05-04 19:54 | 60.22747 | 7.33258 | 19125 ft | 263 kts | 273° |
| 2026-05-04 19:54 | 60.22834 | 7.29611 | 18648 ft | 260 kts | 273° |
| 2026-05-04 19:54 | 60.22919 | 7.26002 | 18170 ft | 256 kts | 273° |
| 2026-05-04 19:55 | 60.23001 | 7.22435 | 17640 ft | 254 kts | 273° |
| 2026-05-04 19:55 | 60.23082 | 7.18891 | 17113 ft | 253 kts | 273° |
| 2026-05-04 19:55 | 60.23163 | 7.15371 | 16611 ft | 249 kts | 273° |
| 2026-05-04 19:55 | 60.23240 | 7.11910 | 16129 ft | 245 kts | 273° |
| 2026-05-04 19:56 | 60.23316 | 7.08509 | 15641 ft | 241 kts | 273° |
| 2026-05-04 19:56 | 60.23387 | 7.05207 | 15210 ft | 238 kts | 273° |
| 2026-05-04 19:56 | 60.23459 | 7.01860 | 14723 ft | 235 kts | 273° |
| 2026-05-04 19:56 | 60.23528 | 6.98616 | 14309 ft | 235 kts | 273° |
| 2026-05-04 19:57 | 60.23599 | 6.95333 | 13869 ft | 235 kts | 273° |
| 2026-05-04 19:57 | 60.23669 | 6.92058 | 13393 ft | 234 kts | 274° |
| 2026-05-04 19:57 | 60.23738 | 6.88788 | 12910 ft | 233 kts | 273° |
| 2026-05-04 19:57 | 60.23804 | 6.85524 | 12376 ft | 234 kts | 274° |
| 2026-05-04 19:58 | 60.23870 | 6.82266 | 11944 ft | 233 kts | 274° |
| 2026-05-04 19:58 | 60.23929 | 6.78985 | 11471 ft | 234 kts | 273° |
| 2026-05-04 19:58 | 60.23963 | 6.76804 | 11116 ft | 237 kts | 274° |
| 2026-05-04 19:58 | 60.24031 | 6.73494 | 10683 ft | 238 kts | 274° |
| 2026-05-04 19:59 | 60.24103 | 6.70157 | 10345 ft | 236 kts | 274° |
| 2026-05-04 19:59 | 60.24168 | 6.66876 | 10079 ft | 237 kts | 274° |
| 2026-05-04 19:59 | 60.24229 | 6.63477 | 9973 ft | 248 kts | 274° |
| 2026-05-04 19:59 | 60.24296 | 6.59999 | 9877 ft | 250 kts | 273° |
| 2026-05-04 20:00 | 60.24168 | 6.56510 | 9717 ft | 254 kts | 262° |
| 2026-05-04 20:00 | 60.23781 | 6.53080 | 9414 ft | 249 kts | 259° |
| 2026-05-04 20:00 | 60.23208 | 6.48635 | 9064 ft | 242 kts | 258° |
| 2026-05-04 20:00 | 60.22928 | 6.46464 | 8871 ft | 243 kts | 258° |
| 2026-05-04 20:01 | 60.22502 | 6.43176 | 8605 ft | 242 kts | 259° |
| 2026-05-04 20:01 | 60.22087 | 6.39940 | 8309 ft | 241 kts | 258° |
| 2026-05-04 20:01 | 60.21674 | 6.36688 | 8059 ft | 239 kts | 259° |
| 2026-05-04 20:01 | 60.21269 | 6.33446 | 7809 ft | 239 kts | 259° |
| 2026-05-04 20:02 | 60.20857 | 6.30180 | 7509 ft | 242 kts | 259° |
| 2026-05-04 20:02 | 60.20445 | 6.26880 | 7256 ft | 244 kts | 259° |
| 2026-05-04 20:02 | 60.20032 | 6.23585 | 7026 ft | 243 kts | 259° |
| 2026-05-04 20:02 | 60.19620 | 6.20269 | 6745 ft | 246 kts | 258° |
| 2026-05-04 20:03 | 60.19201 | 6.16910 | 6496 ft | 247 kts | 258° |
| 2026-05-04 20:03 | 60.18781 | 6.13566 | 6243 ft | 247 kts | 258° |
| 2026-05-04 20:03 | 60.18359 | 6.10223 | 5996 ft | 246 kts | 258° |
| 2026-05-04 20:03 | 60.17946 | 6.06934 | 5710 ft | 246 kts | 258° |
| 2026-05-04 20:04 | 60.17524 | 6.03593 | 5447 ft | 247 kts | 258° |
| 2026-05-04 20:04 | 60.17100 | 6.00237 | 5183 ft | 248 kts | 258° |
| 2026-05-04 20:04 | 60.16678 | 5.96901 | 4918 ft | 245 kts | 258° |
| 2026-05-04 20:04 | 60.16259 | 5.93598 | 4647 ft | 243 kts | 258° |
| 2026-05-04 20:05 | 60.15842 | 5.90318 | 4376 ft | 241 kts | 258° |
| 2026-05-04 20:05 | 60.15429 | 5.87073 | 4109 ft | 239 kts | 258° |
| 2026-05-04 20:05 | 60.15017 | 5.83840 | 4010 ft | 240 kts | 257° |
| 2026-05-04 20:05 | 60.14602 | 5.80571 | 3985 ft | 242 kts | 257° |
| 2026-05-04 20:06 | 60.14192 | 5.77371 | 3993 ft | 237 kts | 257° |
| 2026-05-04 20:06 | 60.13790 | 5.74247 | 3972 ft | 226 kts | 257° |
| 2026-05-04 20:06 | 60.13401 | 5.71235 | 3968 ft | 219 kts | 257° |
| 2026-05-04 20:06 | 60.13021 | 5.68291 | 3975 ft | 217 kts | 257° |
| 2026-05-04 20:07 | 60.12644 | 5.65373 | 3983 ft | 216 kts | 257° |
| 2026-05-04 20:07 | 60.12269 | 5.62473 | 3980 ft | 212 kts | 257° |
| 2026-05-04 20:07 | 60.11901 | 5.59631 | 3975 ft | 207 kts | 257° |
| 2026-05-04 20:07 | 60.11541 | 5.56854 | 3986 ft | 205 kts | 257° |
| 2026-05-04 20:08 | 60.11183 | 5.54092 | 4007 ft | 205 kts | 257° |
| 2026-05-04 20:08 | 60.10826 | 5.51352 | 4011 ft | 206 kts | 257° |
| 2026-05-04 20:08 | 60.10462 | 5.48572 | 4007 ft | 207 kts | 257° |
| 2026-05-04 20:08 | 60.10097 | 5.45783 | 3994 ft | 205 kts | 257° |
| 2026-05-04 20:09 | 60.09738 | 5.43051 | 3983 ft | 199 kts | 258° |
| 2026-05-04 20:09 | 60.09642 | 5.40344 | 3887 ft | 196 kts | 283° |
| 2026-05-04 20:09 | 60.09940 | 5.37669 | 3734 ft | 196 kts | 282° |
| 2026-05-04 20:09 | 60.10196 | 5.35011 | 3574 ft | 190 kts | 282° |
| 2026-05-04 20:10 | 60.10436 | 5.32462 | 3404 ft | 182 kts | 282° |
| 2026-05-04 20:10 | 60.10708 | 5.30052 | 3243 ft | 171 kts | 296° |
| 2026-05-04 20:10 | 60.11540 | 5.28562 | 3059 ft | 161 kts | 345° |
| 2026-05-04 20:10 | 60.12579 | 5.28090 | 3013 ft | 151 kts | 341° |
| 2026-05-04 20:11 | 60.13575 | 5.27521 | 3004 ft | 147 kts | 344° |
| 2026-05-04 20:11 | 60.14593 | 5.26974 | 3002 ft | 157 kts | 342° |
| 2026-05-04 20:11 | 60.15644 | 5.26477 | 2836 ft | 151 kts | 346° |
| 2026-05-04 20:11 | 60.16655 | 5.26096 | 2606 ft | 143 kts | 347° |
| 2026-05-04 20:12 | 60.17620 | 5.25761 | 2403 ft | 139 kts | 348° |
| 2026-05-04 20:12 | 60.18579 | 5.25442 | 2214 ft | 140 kts | 349° |
| 2026-05-04 20:12 | 60.19541 | 5.25112 | 2007 ft | 140 kts | 348° |
| 2026-05-04 20:12 | 60.20501 | 5.24784 | 1817 ft | 139 kts | 347° |
| 2026-05-04 20:13 | 60.21134 | 5.24571 | 1687 ft | 139 kts | 348° |
| 2026-05-04 20:13 | 60.22418 | 5.24142 | 1422 ft | 140 kts | 348° |
| 2026-05-04 20:13 | 60.23372 | 5.23821 | 1219 ft | 139 kts | 348° |
| 2026-05-04 20:13 | 60.24336 | 5.23460 | 995 ft | 144 kts | 349° |
| 2026-05-04 20:14 | 60.25318 | 5.23134 | 779 ft | 147 kts | 350° |
| 2026-05-04 20:14 | 60.26345 | 5.22786 | 571 ft | 151 kts | 350° |
| 2026-05-04 20:14 | 60.27387 | 5.22462 | 354 ft | 152 kts | 351° |
| 2026-05-04 20:14 | 60.28431 | 5.22116 | 167 ft | 151 kts | 351° |
| 2026-05-04 20:15 | 60.29390 | 5.21797 | 154 ft | 124 kts | 350° |
| 2026-05-04 20:15 | 60.29965 | 5.21588 | 161 ft | 18 kts | 350° |
| 2026-05-04 20:15 | 60.29997 | 5.21598 | 161 ft | 5 kts | 22° |
| 2026-05-04 20:15 | 60.30032 | 5.21694 | 160 ft | 6 kts | 72° |
| 2026-05-04 20:16 | 60.30041 | 5.21756 | 159 ft | 7 kts | 78° |
| 2026-05-04 20:16 | 60.29993 | 5.21922 | 159 ft | 23 kts | 158° |
| 2026-05-04 20:16 | 60.29799 | 5.21977 | 157 ft | 33 kts | 172° |
| 2026-05-04 20:16 | 60.29569 | 5.22049 | 155 ft | 26 kts | 170° |
| 2026-05-04 20:17 | 60.29394 | 5.22119 | 154 ft | 25 kts | 167° |
| 2026-05-04 20:17 | 60.29229 | 5.22176 | 152 ft | 23 kts | 171° |
| 2026-05-04 20:17 | 60.29071 | 5.22229 | 151 ft | 23 kts | 170° |
| 2026-05-04 20:17 | 60.28905 | 5.22287 | 149 ft | 14 kts | 170° |
| 2026-05-04 20:18 | 60.28842 | 5.22306 | 149 ft | 2 kts | 171° |
| 2026-05-04 20:18 | 60.28819 | 5.22313 | 149 ft | 5 kts | 171° |
| 2026-05-04 20:18 | 60.28752 | 5.22337 | 148 ft | 17 kts | 173° |
| 2026-05-04 20:18 | 60.28686 | 5.22484 | 148 ft | 17 kts | 103° |
| 2026-05-04 20:19 | 60.28682 | 5.22599 | 147 ft | 7 kts | 81° |
| 2026-05-04 20:19 | 60.28691 | 5.22724 | 147 ft | 11 kts | 83° |
| 2026-05-04 20:19 | 60.28695 | 5.22790 | 147 ft | 0 kts | 83° |